Time;durP1;ratioP1;P1;durP2;ratioP2;P2;SDS_P1;SDS_P2;PMS_P1;PMS_P2;Temp;Humidity;BMP_temperature;BMP_pressure;BME280_temperature;BME280_humidity;BME280_pressure;Samples;Min_cycle;Max_cycle;Signal;HPM_P1;HPM_P2
2023/05/30 00:00:05;;;;;;;;;;;17.90;68.20;;;;;;5012563;28;87613;-45
2023/05/30 00:02:30;;;;;;;;;;;17.90;68.20;;;;;;5014645;28;87312;-45
2023/05/30 00:04:56;;;;;;;;;;;17.90;68.20;;;;;;5012953;28;87104;-46
2023/05/30 00:07:22;;;;;;;;;;;17.90;68.20;;;;;;5012949;28;87048;-46
2023/05/30 00:09:48;;;;;;;;;;;17.90;68.20;;;;;;5012530;28;89169;-45
2023/05/30 00:12:13;;;;;;;;;;;17.80;68.10;;;;;;5014053;28;87161;-45
2023/05/30 00:14:39;;;;;;;;;;;17.90;68.10;;;;;;5013167;28;87136;-46
2023/05/30 00:17:05;;;;;;;;;;;17.80;68.10;;;;;;5014218;28;88106;-45
2023/05/30 00:19:31;;;;;;;;;;;17.80;68.10;;;;;;5014312;28;87526;-45
2023/05/30 00:21:57;;;;;;;;;;;17.80;68.10;;;;;;5012591;28;87198;-45
2023/05/30 00:24:25;;;;;;;;;;;17.80;68.10;;;;;;5013775;28;87124;-45
2023/05/30 00:26:51;;;;;;;;;;;17.80;68.10;;;;;;5011765;28;87481;-45
2023/05/30 00:29:16;;;;;;;;;;;17.80;68.10;;;;;;5012990;28;88332;-45
2023/05/30 00:31:42;;;;;;;;;;;17.70;68.10;;;;;;5013597;28;87138;-45
2023/05/30 00:34:07;;;;;;;;;;;17.80;68.10;;;;;;5011005;28;87939;-46
2023/05/30 00:36:34;;;;;;;;;;;17.70;68.10;;;;;;5013520;28;88021;-45
2023/05/30 00:39:00;;;;;;;;;;;17.70;68.00;;;;;;5014884;28;87171;-45
2023/05/30 00:41:26;;;;;;;;;;;17.70;68.10;;;;;;5013954;28;87966;-45
2023/05/30 00:43:52;;;;;;;;;;;17.70;68.10;;;;;;5011606;28;87126;-45
2023/05/30 00:46:18;;;;;;;;;;;17.70;68.10;;;;;;5012792;28;87099;-45
2023/05/30 00:48:46;;;;;;;;;;;17.70;68.10;;;;;;5013285;28;89584;-45
2023/05/30 00:51:11;;;;;;;;;;;17.70;68.10;;;;;;5011575;28;86322;-46
2023/05/30 00:53:38;;;;;;;;;;;17.70;68.10;;;;;;5012981;28;86865;-45
2023/05/30 00:56:03;;;;;;;;;;;17.60;68.10;;;;;;5012537;28;87288;-45
2023/05/30 00:58:29;;;;;;;;;;;17.60;68.10;;;;;;5013498;28;88031;-45
2023/05/30 01:00:54;;;;;;;;;;;17.70;68.10;;;;;;5012628;28;87850;-46
2023/05/30 01:03:24;;;;;;;;;;;17.60;68.10;;;;;;5013160;28;87361;-45
2023/05/30 01:05:50;;;;;;;;;;;17.60;68.00;;;;;;5010889;28;87539;-45
2023/05/30 01:08:16;;;;;;;;;;;17.60;68.10;;;;;;5012532;28;88220;-46
2023/05/30 01:10:42;;;;;;;;;;;17.60;68.20;;;;;;5013890;28;87103;-45
2023/05/30 01:13:16;;;;;;;;;;;17.60;68.00;;;;;;5010452;28;87551;-46
2023/05/30 01:15:46;;;;;;;;;;;17.60;68.00;;;;;;5012528;28;87539;-46
2023/05/30 01:18:19;;;;;;;;;;;17.50;68.00;;;;;;5013594;28;87183;-45
2023/05/30 01:20:50;;;;;;;;;;;17.50;68.00;;;;;;5014903;28;87462;-45
2023/05/30 01:23:44;;;;;;;;;;;17.60;68.10;;;;;;5009048;28;88323;-46
2023/05/30 01:26:22;;;;;;;;;;;17.60;67.90;;;;;;4995995;28;88302;-46
2023/05/30 01:28:49;;;;;;;;;;;17.50;67.90;;;;;;5010456;28;88931;-45
2023/05/30 01:31:15;;;;;;;;;;;17.50;67.90;;;;;;5012354;28;87119;-45
2023/05/30 01:33:41;;;;;;;;;;;17.50;67.90;;;;;;5012987;28;87296;-45
2023/05/30 01:36:07;;;;;;;;;;;17.50;67.90;;;;;;5010403;28;88138;-45
2023/05/30 01:38:34;;;;;;;;;;;17.50;67.90;;;;;;5012423;28;87128;-45
2023/05/30 01:41:00;;;;;;;;;;;17.50;67.90;;;;;;5012897;28;87295;-45
2023/05/30 01:43:31;;;;;;;;;;;17.40;67.90;;;;;;5015963;28;88254;-45
2023/05/30 01:46:15;;;;;;;;;;;17.40;68.00;;;;;;5012274;28;87428;-46
2023/05/30 01:49:07;;;;;;;;;;;17.50;67.90;;;;;;5010891;28;88946;-45
2023/05/30 01:51:42;;;;;;;;;;;17.40;68.00;;;;;;5012558;28;87114;-46
2023/05/30 01:54:09;;;;;;;;;;;17.40;67.90;;;;;;5011330;28;87052;-46
2023/05/30 01:56:36;;;;;;;;;;;17.40;68.00;;;;;;5011908;28;89472;-46
2023/05/30 01:59:02;;;;;;;;;;;17.40;67.90;;;;;;5010195;28;87103;-45
2023/05/30 02:01:28;;;;;;;;;;;17.40;68.00;;;;;;5012293;28;87508;-45
2023/05/30 02:03:54;;;;;;;;;;;17.40;67.80;;;;;;5011561;28;88252;-45
2023/05/30 02:06:20;;;;;;;;;;;17.30;68.00;;;;;;5013638;28;86650;-45
2023/05/30 02:08:46;;;;;;;;;;;17.30;67.90;;;;;;5012381;28;88086;-45
2023/05/30 02:11:11;;;;;;;;;;;17.30;67.90;;;;;;5010640;28;88055;-45
2023/05/30 02:13:36;;;;;;;;;;;17.30;67.90;;;;;;5011836;28;88007;-45
2023/05/30 02:16:02;;;;;;;;;;;17.30;67.90;;;;;;5009713;28;87714;-46
2023/05/30 02:18:27;;;;;;;;;;;17.30;68.00;;;;;;5011690;28;87085;-45
2023/05/30 02:20:56;;;;;;;;;;;17.30;67.90;;;;;;5012072;28;87020;-46
2023/05/30 02:23:22;;;;;;;;;;;17.30;67.80;;;;;;5009444;28;88224;-45
2023/05/30 02:25:47;;;;;;;;;;;17.20;67.90;;;;;;4994490;28;87152;-45
2023/05/30 02:28:13;;;;;;;;;;;17.20;67.90;;;;;;5014129;28;87817;-46
2023/05/30 02:30:38;;;;;;;;;;;17.20;67.80;;;;;;5010195;28;86442;-45
2023/05/30 02:33:04;;;;;;;;;;;17.20;67.80;;;;;;5012336;28;87125;-45
2023/05/30 02:35:29;;;;;;;;;;;17.20;67.90;;;;;;5014247;28;87970;-45
2023/05/30 02:37:55;;;;;;;;;;;17.20;67.80;;;;;;5013000;28;88108;-45
2023/05/30 02:40:20;;;;;;;;;;;17.20;67.80;;;;;;5016830;28;87550;-45
2023/05/30 02:42:46;;;;;;;;;;;17.20;67.80;;;;;;4995793;28;92267;-46
2023/05/30 02:45:11;;;;;;;;;;;17.10;67.80;;;;;;5015175;28;87206;-46
2023/05/30 02:47:37;;;;;;;;;;;17.20;67.80;;;;;;5012723;28;87605;-45
2023/05/30 02:50:03;;;;;;;;;;;17.10;67.70;;;;;;5018090;28;88244;-45
2023/05/30 02:52:30;;;;;;;;;;;17.10;67.90;;;;;;5014680;28;87546;-45
2023/05/30 02:54:55;;;;;;;;;;;17.10;67.90;;;;;;5013114;28;86472;-46
2023/05/30 02:57:21;;;;;;;;;;;17.10;67.90;;;;;;5016284;28;87017;-45
2023/05/30 02:59:46;;;;;;;;;;;17.10;67.80;;;;;;5014436;28;87588;-45
2023/05/30 03:02:12;;;;;;;;;;;17.10;67.90;;;;;;5012789;28;88912;-45
2023/05/30 03:04:37;;;;;;;;;;;17.00;67.90;;;;;;5012510;28;87509;-45
2023/05/30 03:07:03;;;;;;;;;;;17.00;67.80;;;;;;5011844;28;87456;-45
2023/05/30 03:09:29;;;;;;;;;;;17.00;67.80;;;;;;5015598;28;88458;-45
2023/05/30 03:11:54;;;;;;;;;;;17.00;67.80;;;;;;5011767;28;87527;-45
2023/05/30 03:14:20;;;;;;;;;;;17.00;67.80;;;;;;5013916;28;88075;-45
2023/05/30 03:16:45;;;;;;;;;;;17.00;67.80;;;;;;5011829;28;87189;-45
2023/05/30 03:19:11;;;;;;;;;;;17.00;67.70;;;;;;5009592;28;87492;-46
2023/05/30 03:21:37;;;;;;;;;;;17.00;67.80;;;;;;5014946;28;88042;-46
2023/05/30 03:24:03;;;;;;;;;;;17.00;67.80;;;;;;5011792;28;87126;-45
2023/05/30 03:26:29;;;;;;;;;;;17.00;67.70;;;;;;5011972;28;88833;-45
2023/05/30 03:28:54;;;;;;;;;;;17.00;68.30;;;;;;5017347;28;88348;-45
2023/05/30 03:31:20;;;;;;;;;;;17.00;67.80;;;;;;5017585;28;87161;-45
2023/05/30 03:33:46;;;;;;;;;;;16.90;67.70;;;;;;5013123;28;87160;-45
2023/05/30 03:36:11;;;;;;;;;;;16.90;67.70;;;;;;5007306;28;87065;-45
2023/05/30 03:38:37;;;;;;;;;;;16.90;67.70;;;;;;5013632;28;88608;-45
2023/05/30 03:41:03;;;;;;;;;;;16.90;67.70;;;;;;5012993;28;88128;-46
2023/05/30 03:43:29;;;;;;;;;;;16.90;68.30;;;;;;5015574;28;86370;-45
2023/05/30 03:45:54;;;;;;;;;;;16.90;67.60;;;;;;5012534;28;87995;-45
2023/05/30 03:48:20;;;;;;;;;;;16.90;67.80;;;;;;5011903;28;88527;-45
2023/05/30 03:50:45;;;;;;;;;;;16.90;67.70;;;;;;5012979;28;88205;-45
2023/05/30 03:53:11;;;;;;;;;;;16.90;67.60;;;;;;5013023;28;88164;-45
2023/05/30 03:55:36;;;;;;;;;;;16.90;67.70;;;;;;5011569;28;87451;-46
2023/05/30 03:58:02;;;;;;;;;;;16.80;67.70;;;;;;5010802;28;87522;-45
2023/05/30 04:00:27;;;;;;;;;;;16.80;67.70;;;;;;5013973;28;87886;-46
2023/05/30 04:02:53;;;;;;;;;;;16.80;67.70;;;;;;5010382;28;87227;-45
2023/05/30 04:05:19;;;;;;;;;;;16.80;67.60;;;;;;5008758;28;87126;-45
2023/05/30 04:07:45;;;;;;;;;;;16.80;67.60;;;;;;5010134;28;87385;-45
2023/05/30 04:10:10;;;;;;;;;;;16.80;67.50;;;;;;5011602;28;87159;-45
2023/05/30 04:12:37;;;;;;;;;;;16.80;67.60;;;;;;5009068;28;87444;-45
2023/05/30 04:15:02;;;;;;;;;;;16.80;67.70;;;;;;5014640;28;88933;-45
2023/05/30 04:17:28;;;;;;;;;;;16.80;67.80;;;;;;5011645;28;87499;-45
2023/05/30 04:19:55;;;;;;;;;;;16.80;67.80;;;;;;5011275;28;87927;-45
2023/05/30 04:22:20;;;;;;;;;;;16.80;67.70;;;;;;5011340;28;87194;-45
2023/05/30 04:24:46;;;;;;;;;;;16.70;67.70;;;;;;5011659;28;87535;-45
2023/05/30 04:27:13;;;;;;;;;;;16.70;67.70;;;;;;5010390;28;88115;-45
2023/05/30 04:29:40;;;;;;;;;;;16.70;67.70;;;;;;5012695;28;87127;-45
2023/05/30 04:32:06;;;;;;;;;;;16.70;67.80;;;;;;5014320;28;88773;-45
2023/05/30 04:34:32;;;;;;;;;;;16.70;67.80;;;;;;5014531;28;87972;-45
2023/05/30 04:36:57;;;;;;;;;;;16.70;67.80;;;;;;5015033;28;87084;-45
2023/05/30 04:39:23;;;;;;;;;;;16.70;67.80;;;;;;5011301;28;88980;-45
2023/05/30 04:41:49;;;;;;;;;;;16.70;67.80;;;;;;5010519;28;87458;-45
2023/05/30 04:44:16;;;;;;;;;;;16.70;67.80;;;;;;5007087;28;88851;-45
2023/05/30 04:46:46;;;;;;;;;;;16.70;67.80;;;;;;5012189;28;87883;-45
2023/05/30 04:49:12;;;;;;;;;;;16.70;67.80;;;;;;5014004;28;87305;-45
2023/05/30 04:51:38;;;;;;;;;;;16.70;67.80;;;;;;5012672;28;87608;-45
2023/05/30 04:54:03;;;;;;;;;;;16.60;67.70;;;;;;5011025;28;88082;-46
2023/05/30 04:56:29;;;;;;;;;;;16.70;67.80;;;;;;5014354;28;86221;-46
2023/05/30 04:58:56;;;;;;;;;;;16.60;67.70;;;;;;5015045;28;87123;-45
2023/05/30 05:01:23;;;;;;;;;;;16.70;67.70;;;;;;5008506;28;87513;-45
2023/05/30 05:03:49;;;;;;;;;;;16.60;67.70;;;;;;5010349;28;87900;-45
2023/05/30 05:06:14;;;;;;;;;;;16.60;67.70;;;;;;5010657;28;88107;-45
2023/05/30 05:08:41;;;;;;;;;;;16.70;67.80;;;;;;5011695;28;87261;-45
2023/05/30 05:11:06;;;;;;;;;;;16.70;67.80;;;;;;5011922;28;87258;-45
2023/05/30 05:13:32;;;;;;;;;;;16.60;67.80;;;;;;5009637;28;88002;-45
2023/05/30 05:15:58;;;;;;;;;;;16.70;67.90;;;;;;5012937;28;87625;-46
2023/05/30 05:18:24;;;;;;;;;;;16.70;67.80;;;;;;5015553;28;87363;-45
2023/05/30 05:20:50;;;;;;;;;;;16.60;67.80;;;;;;5005707;28;86440;-45
2023/05/30 05:23:16;;;;;;;;;;;16.60;68.00;;;;;;5011139;28;87074;-46
2023/05/30 05:25:41;;;;;;;;;;;16.60;68.00;;;;;;5011084;28;88160;-45
2023/05/30 05:28:07;;;;;;;;;;;16.60;68.10;;;;;;5005480;28;88407;-45
2023/05/30 05:30:32;;;;;;;;;;;16.60;68.10;;;;;;5009215;28;88481;-46
2023/05/30 05:32:58;;;;;;;;;;;16.70;68.10;;;;;;5011348;28;88072;-45
2023/05/30 05:35:24;;;;;;;;;;;16.70;68.00;;;;;;5010748;28;87204;-45
2023/05/30 05:37:49;;;;;;;;;;;16.70;68.00;;;;;;5009623;28;87682;-47
2023/05/30 05:40:15;;;;;;;;;;;16.70;67.90;;;;;;5012595;28;88014;-45
2023/05/30 05:42:42;;;;;;;;;;;16.70;68.00;;;;;;5009525;28;86970;-45
2023/05/30 05:45:08;;;;;;;;;;;16.70;68.00;;;;;;5013459;28;87490;-45
2023/05/30 05:47:33;;;;;;;;;;;16.70;68.00;;;;;;5010999;28;89110;-45
2023/05/30 05:49:59;;;;;;;;;;;16.70;68.00;;;;;;5012341;28;87374;-45
2023/05/30 05:52:25;;;;;;;;;;;16.70;68.00;;;;;;5011693;28;88634;-45
2023/05/30 05:54:50;;;;;;;;;;;16.70;68.10;;;;;;5013086;28;87170;-45
2023/05/30 05:57:15;;;;;;;;;;;16.70;68.20;;;;;;5010325;28;87530;-46
2023/05/30 05:59:41;;;;;;;;;;;16.70;68.20;;;;;;5008072;28;87990;-46
2023/05/30 06:02:06;;;;;;;;;;;16.60;68.20;;;;;;5013106;28;87443;-47
2023/05/30 06:04:32;;;;;;;;;;;16.60;68.30;;;;;;5012536;28;88831;-45
2023/05/30 06:06:58;;;;;;;;;;;16.70;68.30;;;;;;5006768;28;87660;-47
2023/05/30 06:09:30;;;;;;;;;;;16.60;68.30;;;;;;5012400;28;87437;-45
2023/05/30 06:11:56;;;;;;;;;;;16.60;68.30;;;;;;5013891;28;87918;-45
2023/05/30 06:14:21;;;;;;;;;;;16.60;68.30;;;;;;5012728;28;88804;-45
2023/05/30 06:16:47;;;;;;;;;;;16.60;68.40;;;;;;5008198;28;89865;-45
2023/05/30 06:19:12;;;;;;;;;;;16.60;68.30;;;;;;5012744;28;88256;-45
2023/05/30 06:21:38;;;;;;;;;;;16.60;68.40;;;;;;5015066;28;87154;-45
2023/05/30 06:24:05;;;;;;;;;;;16.60;68.40;;;;;;5016990;28;88622;-46
2023/05/30 06:26:31;;;;;;;;;;;16.60;68.50;;;;;;5013644;28;87282;-46
2023/05/30 06:28:56;;;;;;;;;;;16.60;68.40;;;;;;5012349;28;87517;-46
2023/05/30 06:31:22;;;;;;;;;;;16.60;68.40;;;;;;5014774;28;88215;-46
2023/05/30 06:33:47;;;;;;;;;;;16.60;68.50;;;;;;5011861;28;87298;-45
2023/05/30 06:36:13;;;;;;;;;;;16.60;68.60;;;;;;5015060;28;87198;-45
2023/05/30 06:38:38;;;;;;;;;;;16.60;68.60;;;;;;5011977;28;87927;-45
2023/05/30 06:41:04;;;;;;;;;;;16.60;68.60;;;;;;5015391;28;88043;-46
2023/05/30 06:43:29;;;;;;;;;;;16.60;68.60;;;;;;5011549;28;88204;-45
2023/05/30 06:45:55;;;;;;;;;;;16.60;68.50;;;;;;5012952;28;88055;-46
2023/05/30 06:48:20;;;;;;;;;;;16.60;68.60;;;;;;5013938;28;87509;-45
2023/05/30 06:50:46;;;;;;;;;;;16.60;68.60;;;;;;5011642;28;88818;-45
2023/05/30 06:53:11;;;;;;;;;;;16.60;68.50;;;;;;5011935;28;87417;-46
2023/05/30 06:55:37;;;;;;;;;;;16.60;68.50;;;;;;5018525;28;88114;-45
2023/05/30 06:58:04;;;;;;;;;;;16.60;68.50;;;;;;5013268;28;86606;-45
2023/05/30 07:00:30;;;;;;;;;;;16.60;68.60;;;;;;5010682;28;87255;-45
2023/05/30 07:02:56;;;;;;;;;;;16.60;68.40;;;;;;5011455;28;87226;-45
2023/05/30 07:05:21;;;;;;;;;;;16.60;68.50;;;;;;5013015;28;88445;-46
2023/05/30 07:07:47;;;;;;;;;;;16.60;68.60;;;;;;5015716;28;87131;-45
2023/05/30 07:10:12;;;;;;;;;;;16.60;68.70;;;;;;5015171;28;88109;-45
2023/05/30 07:12:38;;;;;;;;;;;16.60;68.70;;;;;;5016241;28;87150;-46
2023/05/30 07:15:05;;;;;;;;;;;16.60;68.60;;;;;;5014464;28;87487;-46
2023/05/30 07:17:31;;;;;;;;;;;16.60;68.60;;;;;;5012598;28;87994;-45
2023/05/30 07:19:56;;;;;;;;;;;16.70;68.70;;;;;;5015211;28;87355;-45
2023/05/30 07:22:22;;;;;;;;;;;16.60;68.70;;;;;;5011234;28;87448;-46
2023/05/30 07:24:47;;;;;;;;;;;16.70;68.80;;;;;;5013564;28;88229;-45
2023/05/30 07:27:14;;;;;;;;;;;16.70;68.70;;;;;;5016696;28;87119;-45
2023/05/30 07:29:40;;;;;;;;;;;16.70;68.70;;;;;;5013241;28;89001;-46
2023/05/30 07:32:05;;;;;;;;;;;16.70;68.70;;;;;;5012960;28;87025;-45
2023/05/30 07:34:31;;;;;;;;;;;16.70;68.60;;;;;;5014723;28;87385;-46
2023/05/30 07:36:56;;;;;;;;;;;16.70;68.70;;;;;;5013864;28;88226;-46
2023/05/30 07:39:22;;;;;;;;;;;16.70;68.60;;;;;;5013687;28;88936;-46
2023/05/30 07:41:48;;;;;;;;;;;16.70;68.50;;;;;;5013940;28;88422;-45
2023/05/30 07:44:14;;;;;;;;;;;16.70;68.60;;;;;;5015497;28;87235;-46
2023/05/30 07:46:39;;;;;;;;;;;16.70;68.50;;;;;;5014673;28;86310;-46
2023/05/30 07:49:05;;;;;;;;;;;16.70;68.50;;;;;;5007435;28;87351;-46
2023/05/30 07:51:31;;;;;;;;;;;16.70;68.60;;;;;;5013640;28;87745;-45
2023/05/30 07:53:56;;;;;;;;;;;16.70;68.70;;;;;;5010398;28;88121;-46
2023/05/30 07:56:22;;;;;;;;;;;16.70;69.20;;;;;;5013649;28;88131;-47
2023/05/30 07:58:48;;;;;;;;;;;16.70;68.60;;;;;;5010393;28;89150;-46
2023/05/30 08:01:14;;;;;;;;;;;16.70;68.50;;;;;;5012579;28;87429;-46
2023/05/30 08:03:39;;;;;;;;;;;16.80;68.60;;;;;;5014441;28;88225;-46
2023/05/30 08:06:05;;;;;;;;;;;16.70;68.80;;;;;;5011251;28;87211;-45
2023/05/30 08:08:30;;;;;;;;;;;16.70;68.70;;;;;;5013632;28;87676;-46
2023/05/30 08:10:56;;;;;;;;;;;16.70;68.80;;;;;;5017219;28;87210;-45
2023/05/30 08:13:24;;;;;;;;;;;16.80;68.80;;;;;;5011193;28;87075;-45
2023/05/30 08:15:49;;;;;;;;;;;16.80;68.70;;;;;;5013162;28;88332;-45
2023/05/30 08:18:15;;;;;;;;;;;16.80;68.90;;;;;;5013054;28;88046;-46
2023/05/30 08:20:41;;;;;;;;;;;16.80;69.00;;;;;;5012785;28;88136;-45
2023/05/30 08:23:06;;;;;;;;;;;16.80;68.80;;;;;;5011792;28;87997;-46
2023/05/30 08:25:37;;;;;;;;;;;16.80;68.80;;;;;;5013021;28;87156;-45
2023/05/30 08:28:03;;;;;;;;;;;16.80;69.00;;;;;;5014198;28;88899;-45
2023/05/30 08:30:28;;;;;;;;;;;16.80;69.00;;;;;;5011834;28;88052;-46
2023/05/30 08:32:54;;;;;;;;;;;16.80;69.10;;;;;;5015004;28;87142;-45
2023/05/30 08:35:20;;;;;;;;;;;16.80;68.90;;;;;;5014533;28;87247;-46
2023/05/30 08:37:46;;;;;;;;;;;16.90;69.30;;;;;;5011956;28;87770;-46
2023/05/30 08:40:13;;;;;;;;;;;16.80;69.60;;;;;;5012568;28;89047;-46
2023/05/30 08:42:39;;;;;;;;;;;16.80;69.30;;;;;;5010628;28;89120;-47
2023/05/30 08:45:06;;;;;;;;;;;16.80;70.00;;;;;;5011199;28;87653;-46
2023/05/30 08:47:33;;;;;;;;;;;16.80;69.80;;;;;;5011927;28;87336;-46
2023/05/30 08:50:01;;;;;;;;;;;16.80;69.80;;;;;;5012985;28;88218;-46
2023/05/30 08:52:28;;;;;;;;;;;16.90;70.40;;;;;;5013098;28;87174;-45
2023/05/30 08:55:12;;;;;;;;;;;16.90;70.30;;;;;;5015091;28;87739;-46
2023/05/30 08:57:49;;;;;;;;;;;16.90;70.10;;;;;;5012541;28;87555;-46
2023/05/30 09:00:15;;;;;;;;;;;16.90;70.20;;;;;;5011981;28;87340;-46
2023/05/30 09:02:42;;;;;;;;;;;16.90;70.20;;;;;;5011526;28;87945;-47
2023/05/30 09:05:09;;;;;;;;;;;16.90;70.70;;;;;;5013587;28;87085;-45
2023/05/30 09:07:35;;;;;;;;;;;16.90;70.30;;;;;;5011982;28;88412;-45
2023/05/30 09:10:02;;;;;;;;;;;17.00;70.30;;;;;;5011377;28;88764;-46
2023/05/30 09:12:29;;;;;;;;;;;17.00;70.60;;;;;;5010558;28;87570;-47
2023/05/30 09:14:54;;;;;;;;;;;17.00;70.40;;;;;;5013708;28;87378;-47
2023/05/30 09:17:20;;;;;;;;;;;17.00;70.30;;;;;;5012641;28;87163;-46
2023/05/30 09:19:46;;;;;;;;;;;17.00;70.50;;;;;;5013212;28;87369;-45
2023/05/30 09:22:13;;;;;;;;;;;17.00;70.20;;;;;;5009665;28;88249;-45
2023/05/30 09:24:59;;;;;;;;;;;17.00;70.30;;;;;;5013004;28;86360;-45
2023/05/30 09:27:26;;;;;;;;;;;17.00;70.50;;;;;;5011776;28;87094;-46
2023/05/30 09:29:51;;;;;;;;;;;17.10;70.40;;;;;;5010921;28;88099;-45
2023/05/30 09:32:17;;;;;;;;;;;17.10;70.40;;;;;;5012650;28;88330;-47
2023/05/30 09:34:53;;;;;;;;;;;17.10;70.50;;;;;;5011433;28;88460;-46
2023/05/30 09:37:19;;;;;;;;;;;17.10;70.70;;;;;;5012596;28;88034;-46
2023/05/30 09:40:02;;;;;;;;;;;17.10;70.50;;;;;;5012901;28;87476;-45
2023/05/30 09:42:37;;;;;;;;;;;17.10;70.20;;;;;;5010701;28;87849;-47
2023/05/30 09:45:05;;;;;;;;;;;17.10;70.60;;;;;;5013463;28;87139;-46
2023/05/30 09:47:34;;;;;;;;;;;17.10;70.50;;;;;;5014247;28;89231;-46
2023/05/30 09:50:01;;;;;;;;;;;17.10;70.50;;;;;;5014306;28;87485;-45
2023/05/30 09:52:29;;;;;;;;;;;17.10;70.60;;;;;;5017458;28;87183;-45
2023/05/30 09:54:55;;;;;;;;;;;17.20;70.50;;;;;;5014981;28;87404;-46
2023/05/30 09:57:21;;;;;;;;;;;17.20;70.60;;;;;;5013839;28;88244;-45
2023/05/30 09:59:48;;;;;;;;;;;17.20;70.50;;;;;;5019508;28;87073;-46
2023/05/30 10:02:20;;;;;;;;;;;17.20;70.20;;;;;;5013940;28;88186;-46
2023/05/30 10:04:47;;;;;;;;;;;17.20;70.40;;;;;;5013742;28;87442;-46
2023/05/30 10:07:14;;;;;;;;;;;17.20;70.50;;;;;;5014346;28;87334;-46
2023/05/30 10:09:40;;;;;;;;;;;17.20;70.40;;;;;;5014862;28;87837;-46
2023/05/30 10:12:06;;;;;;;;;;;17.20;70.60;;;;;;5016034;28;87154;-46
2023/05/30 10:14:33;;;;;;;;;;;17.30;70.50;;;;;;5013887;28;87382;-47
2023/05/30 10:17:06;;;;;;;;;;;17.30;70.50;;;;;;5014936;28;87901;-46
2023/05/30 10:19:41;;;;;;;;;;;17.30;70.50;;;;;;5016267;28;87205;-45
2023/05/30 10:22:10;;;;;;;;;;;17.30;70.50;;;;;;5017182;28;87907;-47
2023/05/30 10:24:36;;;;;;;;;;;17.30;70.60;;;;;;5015742;28;87122;-46
2023/05/30 10:27:03;;;;;;;;;;;17.30;70.30;;;;;;5013829;28;87409;-46
2023/05/30 10:29:35;;;;;;;;;;;17.30;70.30;;;;;;5013147;28;88219;-46
2023/05/30 10:32:02;;;;;;;;;;;17.30;70.60;;;;;;5013597;28;86849;-45
2023/05/30 10:34:41;;;;;;;;;;;17.30;70.60;;;;;;5014150;28;87360;-45
2023/05/30 10:37:07;;;;;;;;;;;17.30;70.30;;;;;;5013165;28;88188;-46
2023/05/30 10:39:35;;;;;;;;;;;17.30;70.40;;;;;;5016351;28;86469;-46
2023/05/30 10:42:08;;;;;;;;;;;17.30;70.40;;;;;;5012806;28;87556;-46
2023/05/30 10:44:42;;;;;;;;;;;17.40;70.40;;;;;;5016362;28;88247;-45
2023/05/30 10:47:17;;;;;;;;;;;17.30;70.40;;;;;;5012515;28;87973;-46
2023/05/30 10:49:44;;;;;;;;;;;17.40;70.40;;;;;;5012965;28;88104;-45
2023/05/30 10:52:10;;;;;;;;;;;17.40;70.30;;;;;;5011904;28;87299;-46
2023/05/30 10:54:36;;;;;;;;;;;17.40;70.50;;;;;;5013741;28;87297;-46
2023/05/30 10:57:26;;;;;;;;;;;17.40;70.50;;;;;;5012553;28;88128;-46
2023/05/30 10:59:55;;;;;;;;;;;17.40;70.60;;;;;;5014671;28;87593;-46
2023/05/30 11:02:36;;;;;;;;;;;17.40;70.70;;;;;;5013303;28;87575;-46
2023/05/30 11:05:07;;;;;;;;;;;17.40;70.70;;;;;;5012068;28;87495;-45
2023/05/30 11:07:40;;;;;;;;;;;17.40;70.60;;;;;;5015363;28;87195;-46
2023/05/30 11:10:06;;;;;;;;;;;17.40;70.70;;;;;;5011644;28;87994;-45
2023/05/30 11:12:32;;;;;;;;;;;17.40;70.50;;;;;;5013001;28;88095;-46
2023/05/30 11:14:59;;;;;;;;;;;17.40;70.50;;;;;;5012253;28;87774;-45
2023/05/30 11:17:34;;;;;;;;;;;17.40;71.00;;;;;;5011239;28;89820;-46
2023/05/30 11:20:14;;;;;;;;;;;17.40;70.40;;;;;;5011724;28;87134;-46
2023/05/30 11:22:41;;;;;;;;;;;17.50;70.40;;;;;;5013410;28;87602;-46
2023/05/30 11:25:26;;;;;;;;;;;17.50;70.50;;;;;;5012532;28;87978;-45
2023/05/30 11:28:03;;;;;;;;;;;17.50;70.50;;;;;;5014144;28;87487;-46
2023/05/30 11:30:37;;;;;;;;;;;17.50;70.30;;;;;;5012728;28;87051;-46
2023/05/30 11:33:23;;;;;;;;;;;17.50;70.30;;;;;;5011601;28;87130;-46
2023/05/30 11:35:49;;;;;;;;;;;17.50;70.40;;;;;;5010691;28;87608;-46
2023/05/30 11:38:21;;;;;;;;;;;17.50;70.40;;;;;;5011182;28;89017;-45
2023/05/30 11:40:47;;;;;;;;;;;17.50;70.30;;;;;;5013057;28;87498;-46
2023/05/30 11:43:14;;;;;;;;;;;17.50;70.20;;;;;;5012216;28;87601;-45
2023/05/30 11:45:40;;;;;;;;;;;17.50;70.20;;;;;;5010834;28;89745;-46
2023/05/30 11:48:07;;;;;;;;;;;17.60;70.20;;;;;;5013362;28;87175;-46
2023/05/30 11:50:39;;;;;;;;;;;17.60;70.20;;;;;;5014228;28;87616;-46
2023/05/30 11:53:12;;;;;;;;;;;17.60;70.00;;;;;;5010525;28;87244;-46
2023/05/30 11:55:37;;;;;;;;;;;17.60;70.00;;;;;;5015134;28;87584;-46
2023/05/30 11:58:04;;;;;;;;;;;17.70;69.90;;;;;;5011436;28;88057;-45
2023/05/30 12:00:30;;;;;;;;;;;17.70;69.80;;;;;;5013677;28;87063;-45
2023/05/30 12:02:55;;;;;;;;;;;17.70;70.00;;;;;;5011527;28;88066;-45
2023/05/30 12:05:21;;;;;;;;;;;17.70;69.90;;;;;;5011805;28;88191;-46
2023/05/30 12:07:52;;;;;;;;;;;17.70;69.90;;;;;;5012580;28;87607;-45
2023/05/30 12:10:26;;;;;;;;;;;17.80;69.80;;;;;;5012357;28;87420;-45
2023/05/30 12:12:51;;;;;;;;;;;17.80;69.90;;;;;;5015903;28;88205;-46
2023/05/30 12:15:18;;;;;;;;;;;17.80;69.70;;;;;;5011785;28;87663;-46
2023/05/30 12:17:45;;;;;;;;;;;17.80;69.80;;;;;;5011814;28;88285;-47
2023/05/30 12:20:13;;;;;;;;;;;17.70;69.60;;;;;;5013349;28;86357;-47
2023/05/30 12:22:42;;;;;;;;;;;17.80;69.80;;;;;;5010331;28;87002;-47
2023/05/30 12:25:11;;;;;;;;;;;17.80;69.70;;;;;;5011724;28;87363;-46
2023/05/30 12:27:44;;;;;;;;;;;17.80;69.70;;;;;;5009642;28;88162;-47
2023/05/30 12:30:13;;;;;;;;;;;17.80;69.60;;;;;;5010820;28;88335;-46
2023/05/30 12:32:39;;;;;;;;;;;17.80;69.70;;;;;;5010401;28;87999;-46
2023/05/30 12:35:05;;;;;;;;;;;17.90;69.60;;;;;;5014914;28;87768;-45
2023/05/30 12:37:30;;;;;;;;;;;17.80;69.60;;;;;;5012420;28;88392;-46
2023/05/30 12:39:57;;;;;;;;;;;17.90;69.50;;;;;;5009451;28;88603;-47
2023/05/30 12:42:29;;;;;;;;;;;17.90;69.40;;;;;;5012964;28;86964;-46
2023/05/30 12:44:55;;;;;;;;;;;17.90;69.30;;;;;;5012919;28;87301;-46
2023/05/30 12:47:21;;;;;;;;;;;17.90;69.30;;;;;;5010386;28;87058;-46
2023/05/30 12:49:47;;;;;;;;;;;17.90;69.30;;;;;;5012259;28;87522;-47
2023/05/30 12:52:13;;;;;;;;;;;17.90;69.30;;;;;;5012012;28;89082;-46
2023/05/30 12:54:42;;;;;;;;;;;17.90;69.30;;;;;;5011619;28;88915;-45
2023/05/30 12:57:08;;;;;;;;;;;17.80;69.70;;;;;;5014350;28;87317;-46
2023/05/30 12:59:34;;;;;;;;;;;17.80;69.90;;;;;;5013322;28;87114;-46
2023/05/30 13:02:00;;;;;;;;;;;17.70;70.10;;;;;;5010395;28;87513;-46
2023/05/30 13:04:25;;;;;;;;;;;17.70;70.30;;;;;;5011633;28;88129;-46
2023/05/30 13:06:51;;;;;;;;;;;17.70;70.30;;;;;;5012460;28;87146;-46
2023/05/30 13:09:17;;;;;;;;;;;17.70;70.50;;;;;;5010461;28;87478;-46
2023/05/30 13:11:42;;;;;;;;;;;17.70;70.40;;;;;;5013098;28;87970;-46
2023/05/30 13:14:08;;;;;;;;;;;17.70;70.40;;;;;;5010624;28;87114;-46
2023/05/30 13:16:34;;;;;;;;;;;17.70;70.40;;;;;;5012326;28;88044;-47
2023/05/30 13:19:00;;;;;;;;;;;17.70;70.30;;;;;;5013340;28;88645;-46
2023/05/30 13:21:25;;;;;;;;;;;17.70;70.40;;;;;;5010707;28;87523;-46
2023/05/30 13:23:51;;;;;;;;;;;17.70;70.30;;;;;;5012173;28;87945;-46
2023/05/30 13:26:16;;;;;;;;;;;17.70;70.00;;;;;;5013285;28;87245;-46
2023/05/30 13:28:42;;;;;;;;;;;17.70;70.10;;;;;;5010051;28;87496;-46
2023/05/30 13:31:07;;;;;;;;;;;17.80;70.10;;;;;;5009933;28;88247;-46
2023/05/30 13:33:33;;;;;;;;;;;17.80;69.90;;;;;;5013569;28;86649;-45
2023/05/30 13:35:58;;;;;;;;;;;17.80;69.80;;;;;;5011048;28;87042;-46
2023/05/30 13:38:27;;;;;;;;;;;17.80;69.80;;;;;;5013734;28;88499;-45
2023/05/30 13:40:52;;;;;;;;;;;17.80;69.70;;;;;;5010942;28;89293;-47
2023/05/30 13:43:20;;;;;;;;;;;17.80;69.50;;;;;;5011308;28;87981;-46
2023/05/30 13:45:46;;;;;;;;;;;17.90;69.30;;;;;;5010568;28;87057;-46
2023/05/30 13:48:15;;;;;;;;;;;17.90;69.20;;;;;;5009199;28;87128;-46
2023/05/30 13:50:40;;;;;;;;;;;17.90;69.10;;;;;;5011582;28;87326;-47
2023/05/30 13:53:07;;;;;;;;;;;17.90;68.90;;;;;;5011708;28;87089;-47
2023/05/30 13:55:33;;;;;;;;;;;18.00;68.80;;;;;;5011045;28;88983;-46
2023/05/30 13:57:58;;;;;;;;;;;18.00;68.70;;;;;;5009623;28;88193;-47
2023/05/30 14:00:24;;;;;;;;;;;18.00;69.20;;;;;;5013441;28;87148;-46
2023/05/30 14:02:49;;;;;;;;;;;18.00;68.60;;;;;;5011708;28;88051;-46
2023/05/30 14:05:15;;;;;;;;;;;18.00;68.50;;;;;;5009381;28;88007;-46
2023/05/30 14:07:40;;;;;;;;;;;18.10;68.70;;;;;;5012306;28;88443;-46
2023/05/30 14:10:06;;;;;;;;;;;18.10;68.60;;;;;;5011735;28;88254;-46
2023/05/30 14:12:32;;;;;;;;;;;18.10;68.70;;;;;;5010735;28;87662;-47
2023/05/30 14:14:58;;;;;;;;;;;18.10;68.60;;;;;;5009809;28;87465;-46